sensor_id;sensor_type;location;lat;lon;timestamp;pressure;altitude;pressure_sealevel;temperature;humidity
63568;BME280;49715;42.386;20.434;2022-12-11T00:01:25;95279.91;;;13.41;71.24
63568;BME280;49715;42.386;20.434;2022-12-11T00:03:53;95278.44;;;13.45;71.28
63568;BME280;49715;42.386;20.434;2022-12-11T00:06:21;95266.69;;;13.41;71.18
63568;BME280;49715;42.386;20.434;2022-12-11T00:08:52;95264.25;;;13.39;71.41
63568;BME280;49715;42.386;20.434;2022-12-11T00:11:20;95269.56;;;13.39;71.53
63568;BME280;49715;42.386;20.434;2022-12-11T00:13:47;95272.63;;;13.36;71.47
63568;BME280;49715;42.386;20.434;2022-12-11T00:16:13;95261.56;;;13.28;71.73
63568;BME280;49715;42.386;20.434;2022-12-11T00:18:40;95251.00;;;13.21;71.83
63568;BME280;49715;42.386;20.434;2022-12-11T00:21:11;95247.53;;;13.21;71.91
63568;BME280;49715;42.386;20.434;2022-12-11T00:23:37;95243.00;;;13.09;72.01
63568;BME280;49715;42.386;20.434;2022-12-11T00:26:06;95248.69;;;13.06;72.31
63568;BME280;49715;42.386;20.434;2022-12-11T00:28:34;95239.81;;;13.01;72.50
63568;BME280;49715;42.386;20.434;2022-12-11T00:31:05;95236.78;;;12.97;72.70
63568;BME280;49715;42.386;20.434;2022-12-11T00:33:32;95225.63;;;12.95;72.76
63568;BME280;49715;42.386;20.434;2022-12-11T00:35:59;95214.69;;;12.92;73.01
63568;BME280;49715;42.386;20.434;2022-12-11T00:38:25;95202.28;;;12.92;73.28
63568;BME280;49715;42.386;20.434;2022-12-11T00:40:51;95213.66;;;12.93;72.95
63568;BME280;49715;42.386;20.434;2022-12-11T00:43:18;95209.16;;;12.93;72.96
63568;BME280;49715;42.386;20.434;2022-12-11T00:45:45;95222.38;;;12.93;72.90
63568;BME280;49715;42.386;20.434;2022-12-11T00:48:12;95230.50;;;12.98;73.11
63568;BME280;49715;42.386;20.434;2022-12-11T00:50:39;95218.75;;;12.94;73.17
63568;BME280;49715;42.386;20.434;2022-12-11T00:53:05;95205.72;;;12.93;72.73
63568;BME280;49715;42.386;20.434;2022-12-11T00:55:36;95221.72;;;12.98;72.71
63568;BME280;49715;42.386;20.434;2022-12-11T00:58:03;95218.28;;;12.97;72.59
63568;BME280;49715;42.386;20.434;2022-12-11T01:00:29;95221.53;;;12.99;72.75
63568;BME280;49715;42.386;20.434;2022-12-11T01:02:55;95215.63;;;12.97;72.52
63568;BME280;49715;42.386;20.434;2022-12-11T01:05:22;95224.31;;;13.04;72.62
63568;BME280;49715;42.386;20.434;2022-12-11T01:07:48;95228.16;;;13.08;72.50
63568;BME280;49715;42.386;20.434;2022-12-11T01:10:15;95234.41;;;13.14;72.36
63568;BME280;49715;42.386;20.434;2022-12-11T01:12:57;95243.06;;;13.21;72.03
63568;BME280;49715;42.386;20.434;2022-12-11T01:15:31;95231.47;;;13.22;71.75
63568;BME280;49715;42.386;20.434;2022-12-11T01:17:58;95235.44;;;13.31;71.32
63568;BME280;49715;42.386;20.434;2022-12-11T01:20:26;95238.91;;;13.32;71.47
63568;BME280;49715;42.386;20.434;2022-12-11T01:22:55;95236.84;;;13.34;71.25
63568;BME280;49715;42.386;20.434;2022-12-11T01:25:22;95254.91;;;13.37;71.21
63568;BME280;49715;42.386;20.434;2022-12-11T01:27:49;95246.69;;;13.27;71.21
63568;BME280;49715;42.386;20.434;2022-12-11T01:30:17;95250.75;;;13.29;71.38
63568;BME280;49715;42.386;20.434;2022-12-11T01:32:44;95213.38;;;13.19;71.41
63568;BME280;49715;42.386;20.434;2022-12-11T01:35:11;95210.38;;;13.15;71.70
63568;BME280;49715;42.386;20.434;2022-12-11T01:37:38;95225.66;;;13.13;71.54
63568;BME280;49715;42.386;20.434;2022-12-11T01:40:06;95225.72;;;13.07;71.75
63568;BME280;49715;42.386;20.434;2022-12-11T01:42:33;95227.78;;;13.05;71.71
63568;BME280;49715;42.386;20.434;2022-12-11T01:45:25;95216.00;;;13.01;71.99
63568;BME280;49715;42.386;20.434;2022-12-11T01:48:05;95192.72;;;12.91;72.05
63568;BME280;49715;42.386;20.434;2022-12-11T01:50:37;95218.28;;;12.97;72.29
63568;BME280;49715;42.386;20.434;2022-12-11T01:53:06;95232.16;;;12.93;72.47
63568;BME280;49715;42.386;20.434;2022-12-11T01:55:34;95229.34;;;12.87;72.70
63568;BME280;49715;42.386;20.434;2022-12-11T01:58:03;95235.53;;;12.81;72.81
63568;BME280;49715;42.386;20.434;2022-12-11T02:00:30;95233.25;;;12.85;72.73
63568;BME280;49715;42.386;20.434;2022-12-11T02:02:57;95240.81;;;12.81;72.96
63568;BME280;49715;42.386;20.434;2022-12-11T02:05:23;95230.91;;;12.77;72.77
63568;BME280;49715;42.386;20.434;2022-12-11T02:07:53;95249.34;;;12.83;72.84
63568;BME280;49715;42.386;20.434;2022-12-11T02:10:23;95251.78;;;12.85;72.83
63568;BME280;49715;42.386;20.434;2022-12-11T02:13:05;95214.22;;;12.76;72.98
63568;BME280;49715;42.386;20.434;2022-12-11T02:15:42;95207.34;;;12.75;72.83
63568;BME280;49715;42.386;20.434;2022-12-11T02:18:19;95220.69;;;12.80;72.65
63568;BME280;49715;42.386;20.434;2022-12-11T02:29:06;95215.63;;;12.79;72.43
63568;BME280;49715;42.386;20.434;2022-12-11T02:31:56;95217.44;;;12.78;72.21
63568;BME280;49715;42.386;20.434;2022-12-11T02:36:54;95211.88;;;12.86;72.39
63568;BME280;49715;42.386;20.434;2022-12-11T02:39:24;95201.97;;;12.82;72.11
63568;BME280;49715;42.386;20.434;2022-12-11T02:41:52;95190.81;;;12.80;72.40
63568;BME280;49715;42.386;20.434;2022-12-11T02:44:23;95205.06;;;12.79;72.36
63568;BME280;49715;42.386;20.434;2022-12-11T02:46:51;95202.84;;;12.76;72.63
63568;BME280;49715;42.386;20.434;2022-12-11T02:49:18;95201.88;;;12.70;73.18
63568;BME280;49715;42.386;20.434;2022-12-11T02:51:46;95214.06;;;12.71;72.89
63568;BME280;49715;42.386;20.434;2022-12-11T02:54:17;95199.53;;;12.62;72.78
63568;BME280;49715;42.386;20.434;2022-12-11T02:56:51;95202.53;;;12.66;72.96
63568;BME280;49715;42.386;20.434;2022-12-11T02:59:23;95205.44;;;12.57;73.25
63568;BME280;49715;42.386;20.434;2022-12-11T03:01:51;95221.75;;;12.54;73.45
63568;BME280;49715;42.386;20.434;2022-12-11T03:04:17;95214.09;;;12.46;73.71
63568;BME280;49715;42.386;20.434;2022-12-11T03:06:48;95216.13;;;12.44;73.75
63568;BME280;49715;42.386;20.434;2022-12-11T03:09:16;95224.66;;;12.46;73.75
63568;BME280;49715;42.386;20.434;2022-12-11T03:11:42;95229.41;;;12.37;73.96
63568;BME280;49715;42.386;20.434;2022-12-11T03:14:09;95228.00;;;12.35;74.36
63568;BME280;49715;42.386;20.434;2022-12-11T03:21:59;95202.50;;;12.22;75.06
63568;BME280;49715;42.386;20.434;2022-12-11T03:24:36;95210.00;;;12.25;75.09
63568;BME280;49715;42.386;20.434;2022-12-11T03:27:14;95220.91;;;12.29;75.11
63568;BME280;49715;42.386;20.434;2022-12-11T03:30:04;95213.78;;;12.36;74.94
63568;BME280;49715;42.386;20.434;2022-12-11T03:32:39;95214.31;;;12.45;74.83
63568;BME280;49715;42.386;20.434;2022-12-11T03:35:21;95219.38;;;12.46;74.67
63568;BME280;49715;42.386;20.434;2022-12-11T03:37:51;95214.84;;;12.53;74.39
63568;BME280;49715;42.386;20.434;2022-12-11T03:40:20;95216.63;;;12.59;74.39
63568;BME280;49715;42.386;20.434;2022-12-11T03:42:50;95221.47;;;12.62;74.44
63568;BME280;49715;42.386;20.434;2022-12-11T03:45:19;95225.72;;;12.63;74.32
63568;BME280;49715;42.386;20.434;2022-12-11T03:47:46;95221.91;;;12.59;74.32
63568;BME280;49715;42.386;20.434;2022-12-11T03:50:16;95214.19;;;12.58;74.40
63568;BME280;49715;42.386;20.434;2022-12-11T03:52:45;95224.34;;;12.61;74.55
63568;BME280;49715;42.386;20.434;2022-12-11T03:55:15;95229.41;;;12.62;74.32
63568;BME280;49715;42.386;20.434;2022-12-11T03:57:42;95240.34;;;12.66;74.38
63568;BME280;49715;42.386;20.434;2022-12-11T04:00:11;95209.28;;;12.61;74.71
63568;BME280;49715;42.386;20.434;2022-12-11T04:02:39;95223.47;;;12.67;74.54
63568;BME280;49715;42.386;20.434;2022-12-11T04:05:06;95229.56;;;12.68;74.39
63568;BME280;49715;42.386;20.434;2022-12-11T04:07:32;95223.69;;;12.66;74.65
63568;BME280;49715;42.386;20.434;2022-12-11T04:09:59;95233.16;;;12.73;74.70
63568;BME280;49715;42.386;20.434;2022-12-11T04:12:25;95216.50;;;12.73;74.47
63568;BME280;49715;42.386;20.434;2022-12-11T04:14:51;95219.75;;;12.75;74.68
63568;BME280;49715;42.386;20.434;2022-12-11T04:17:32;95216.66;;;12.78;74.45
63568;BME280;49715;42.386;20.434;2022-12-11T04:20:18;95214.38;;;12.81;74.19
63568;BME280;49715;42.386;20.434;2022-12-11T04:23:04;95217.63;;;12.83;74.18
63568;BME280;49715;42.386;20.434;2022-12-11T04:25:50;95203.38;;;12.84;73.98
63568;BME280;49715;42.386;20.434;2022-12-11T04:28:16;95219.53;;;12.95;74.01
63568;BME280;49715;42.386;20.434;2022-12-11T04:30:51;95215.50;;;12.92;73.92
63568;BME280;49715;42.386;20.434;2022-12-11T04:33:18;95230.84;;;13.02;73.81
63568;BME280;49715;42.386;20.434;2022-12-11T04:35:44;95235.72;;;13.05;73.65
63568;BME280;49715;42.386;20.434;2022-12-11T04:38:11;95234.44;;;13.07;73.50
63568;BME280;49715;42.386;20.434;2022-12-11T04:40:37;95230.00;;;13.08;73.48
63568;BME280;49715;42.386;20.434;2022-12-11T04:43:03;95237.31;;;13.06;73.34
63568;BME280;49715;42.386;20.434;2022-12-11T04:45:29;95250.91;;;13.09;73.37
63568;BME280;49715;42.386;20.434;2022-12-11T04:47:56;95253.56;;;13.09;73.31
63568;BME280;49715;42.386;20.434;2022-12-11T04:50:22;95249.97;;;13.04;73.46
63568;BME280;49715;42.386;20.434;2022-12-11T04:52:49;95244.44;;;13.05;73.08
63568;BME280;49715;42.386;20.434;2022-12-11T04:55:15;95248.94;;;13.05;73.19
63568;BME280;49715;42.386;20.434;2022-12-11T04:57:41;95239.16;;;13.05;73.30
63568;BME280;49715;42.386;20.434;2022-12-11T05:00:09;95222.91;;;13.02;73.18
63568;BME280;49715;42.386;20.434;2022-12-11T05:02:38;95229.25;;;13.01;73.33
63568;BME280;49715;42.386;20.434;2022-12-11T05:05:07;95227.47;;;12.95;73.28
63568;BME280;49715;42.386;20.434;2022-12-11T05:07:36;95231.97;;;12.94;72.99
63568;BME280;49715;42.386;20.434;2022-12-11T05:10:04;95218.59;;;12.89;73.01
63568;BME280;49715;42.386;20.434;2022-12-11T05:12:31;95220.28;;;12.83;73.27
63568;BME280;49715;42.386;20.434;2022-12-11T05:14:58;95207.91;;;12.77;73.11
63568;BME280;49715;42.386;20.434;2022-12-11T05:17:24;95214.88;;;12.72;73.25
63568;BME280;49715;42.386;20.434;2022-12-11T05:19:50;95224.66;;;12.71;73.15
63568;BME280;49715;42.386;20.434;2022-12-11T05:22:17;95232.03;;;12.62;73.29
63568;BME280;49715;42.386;20.434;2022-12-11T05:24:44;95221.53;;;12.56;73.98
63568;BME280;49715;42.386;20.434;2022-12-11T05:27:11;95234.97;;;12.54;73.62
63568;BME280;49715;42.386;20.434;2022-12-11T05:29:37;95248.19;;;12.54;73.51
63568;BME280;49715;42.386;20.434;2022-12-11T05:32:03;95231.13;;;12.50;73.63
63568;BME280;49715;42.386;20.434;2022-12-11T05:34:30;95245.31;;;12.56;73.35
63568;BME280;49715;42.386;20.434;2022-12-11T05:36:56;95247.50;;;12.59;73.74
63568;BME280;49715;42.386;20.434;2022-12-11T05:39:22;95244.28;;;12.57;73.42
63568;BME280;49715;42.386;20.434;2022-12-11T05:41:49;95257.88;;;12.60;73.52
63568;BME280;49715;42.386;20.434;2022-12-11T05:44:15;95262.53;;;12.65;73.20
63568;BME280;49715;42.386;20.434;2022-12-11T05:46:41;95260.03;;;12.70;73.42
63568;BME280;49715;42.386;20.434;2022-12-11T05:49:09;95267.97;;;12.70;73.38
63568;BME280;49715;42.386;20.434;2022-12-11T05:51:35;95273.03;;;12.72;73.15
63568;BME280;49715;42.386;20.434;2022-12-11T05:54:04;95266.94;;;12.71;73.41
63568;BME280;49715;42.386;20.434;2022-12-11T05:56:32;95270.22;;;12.67;73.17
63568;BME280;49715;42.386;20.434;2022-12-11T05:59:00;95270.59;;;12.70;73.51
63568;BME280;49715;42.386;20.434;2022-12-11T06:01:30;95278.72;;;12.69;73.52
63568;BME280;49715;42.386;20.434;2022-12-11T06:03:57;95281.81;;;12.66;73.49
63568;BME280;49715;42.386;20.434;2022-12-11T06:06:24;95290.34;;;12.68;73.72
63568;BME280;49715;42.386;20.434;2022-12-11T06:08:52;95291.38;;;12.67;73.85
63568;BME280;49715;42.386;20.434;2022-12-11T06:11:20;95284.88;;;12.62;74.02
63568;BME280;49715;42.386;20.434;2022-12-11T06:13:47;95307.00;;;12.68;73.98
63568;BME280;49715;42.386;20.434;2022-12-11T06:16:14;95303.38;;;12.62;74.41
63568;BME280;49715;42.386;20.434;2022-12-11T06:18:43;95296.25;;;12.63;74.10
63568;BME280;49715;42.386;20.434;2022-12-11T06:21:14;95302.31;;;12.70;73.89
63568;BME280;49715;42.386;20.434;2022-12-11T06:23:42;95310.63;;;12.74;73.82
63568;BME280;49715;42.386;20.434;2022-12-11T06:26:09;95309.00;;;12.73;73.83
63568;BME280;49715;42.386;20.434;2022-12-11T06:28:36;95316.28;;;12.77;73.96
63568;BME280;49715;42.386;20.434;2022-12-11T06:31:03;95310.63;;;12.74;73.96
63568;BME280;49715;42.386;20.434;2022-12-11T06:33:30;95309.16;;;12.78;73.81
63568;BME280;49715;42.386;20.434;2022-12-11T06:36:00;95313.88;;;12.76;73.75
63568;BME280;49715;42.386;20.434;2022-12-11T06:38:27;95314.91;;;12.75;73.87
63568;BME280;49715;42.386;20.434;2022-12-11T06:40:57;95316.09;;;12.79;73.69
63568;BME280;49715;42.386;20.434;2022-12-11T06:43:24;95314.03;;;12.81;73.72
63568;BME280;49715;42.386;20.434;2022-12-11T06:45:51;95327.81;;;12.83;73.67
63568;BME280;49715;42.386;20.434;2022-12-11T06:48:18;95340.25;;;12.82;73.73
63568;BME280;49715;42.386;20.434;2022-12-11T06:50:45;95340.47;;;12.81;73.59
63568;BME280;49715;42.386;20.434;2022-12-11T06:53:12;95351.44;;;12.84;73.69
63568;BME280;49715;42.386;20.434;2022-12-11T06:55:40;95353.03;;;12.85;73.49
63568;BME280;49715;42.386;20.434;2022-12-11T06:58:08;95364.41;;;12.86;73.68
63568;BME280;49715;42.386;20.434;2022-12-11T07:00:35;95364.00;;;12.89;73.41
63568;BME280;49715;42.386;20.434;2022-12-11T07:03:02;95363.56;;;12.92;73.45
63568;BME280;49715;42.386;20.434;2022-12-11T07:05:29;95356.25;;;12.87;73.76
63568;BME280;49715;42.386;20.434;2022-12-11T07:07:55;95354.44;;;12.88;73.58
63568;BME280;49715;42.386;20.434;2022-12-11T07:10:22;95358.91;;;12.87;73.50
63568;BME280;49715;42.386;20.434;2022-12-11T07:12:51;95361.53;;;12.87;73.93
63568;BME280;49715;42.386;20.434;2022-12-11T07:15:17;95365.63;;;12.90;73.58
63568;BME280;49715;42.386;20.434;2022-12-11T07:17:44;95364.19;;;12.87;73.61
63568;BME280;49715;42.386;20.434;2022-12-11T07:20:10;95383.31;;;12.89;73.53
63568;BME280;49715;42.386;20.434;2022-12-11T07:22:37;95370.91;;;12.90;73.15
63568;BME280;49715;42.386;20.434;2022-12-11T07:25:03;95384.69;;;12.92;73.40
63568;BME280;49715;42.386;20.434;2022-12-11T07:27:30;95389.97;;;12.99;73.27
63568;BME280;49715;42.386;20.434;2022-12-11T07:29:56;95386.66;;;13.03;73.15
63568;BME280;49715;42.386;20.434;2022-12-11T07:32:22;95387.84;;;13.07;73.05
63568;BME280;49715;42.386;20.434;2022-12-11T07:34:49;95386.84;;;13.08;72.97
63568;BME280;49715;42.386;20.434;2022-12-11T07:37:16;95379.63;;;13.15;72.93
63568;BME280;49715;42.386;20.434;2022-12-11T07:39:42;95377.59;;;13.18;72.53
63568;BME280;49715;42.386;20.434;2022-12-11T07:42:09;95372.91;;;13.20;72.54
63568;BME280;49715;42.386;20.434;2022-12-11T07:44:35;95375.72;;;13.25;72.51
63568;BME280;49715;42.386;20.434;2022-12-11T07:47:01;95376.13;;;13.28;72.30
63568;BME280;49715;42.386;20.434;2022-12-11T07:49:28;95362.88;;;13.28;72.24
63568;BME280;49715;42.386;20.434;2022-12-11T07:51:54;95371.19;;;13.32;72.32
63568;BME280;49715;42.386;20.434;2022-12-11T07:54:20;95384.38;;;13.38;71.82
63568;BME280;49715;42.386;20.434;2022-12-11T07:56:47;95387.59;;;13.40;71.84
63568;BME280;49715;42.386;20.434;2022-12-11T07:59:14;95372.97;;;13.38;71.71
63568;BME280;49715;42.386;20.434;2022-12-11T08:01:42;95375.81;;;13.36;71.62
63568;BME280;49715;42.386;20.434;2022-12-11T08:04:10;95380.03;;;13.44;71.52
63568;BME280;49715;42.386;20.434;2022-12-11T08:06:38;95366.03;;;13.37;71.02
63568;BME280;49715;42.386;20.434;2022-12-11T08:09:08;95378.41;;;13.43;71.08
63568;BME280;49715;42.386;20.434;2022-12-11T08:11:35;95385.31;;;13.44;71.07
63568;BME280;49715;42.386;20.434;2022-12-11T08:14:01;95379.22;;;13.44;70.88
63568;BME280;49715;42.386;20.434;2022-12-11T08:16:28;95364.97;;;13.45;71.00
63568;BME280;49715;42.386;20.434;2022-12-11T08:18:54;95385.84;;;13.53;70.99
63568;BME280;49715;42.386;20.434;2022-12-11T08:21:25;95388.84;;;13.56;70.91
63568;BME280;49715;42.386;20.434;2022-12-11T08:23:52;95386.81;;;13.58;70.75
63568;BME280;49715;42.386;20.434;2022-12-11T08:26:22;95383.50;;;13.63;70.70
63568;BME280;49715;42.386;20.434;2022-12-11T08:28:49;95385.34;;;13.62;70.76
63568;BME280;49715;42.386;20.434;2022-12-11T08:31:17;95384.69;;;13.67;70.89
63568;BME280;49715;42.386;20.434;2022-12-11T08:33:43;95387.69;;;13.71;70.54
63568;BME280;49715;42.386;20.434;2022-12-11T08:36:13;95391.53;;;13.75;70.65
63568;BME280;49715;42.386;20.434;2022-12-11T08:38:40;95394.19;;;13.75;70.55
63568;BME280;49715;42.386;20.434;2022-12-11T08:41:12;95384.84;;;13.72;70.31
63568;BME280;49715;42.386;20.434;2022-12-11T08:43:39;95391.16;;;13.71;70.33
63568;BME280;49715;42.386;20.434;2022-12-11T08:46:06;95386.88;;;13.70;70.55
63568;BME280;49715;42.386;20.434;2022-12-11T08:48:33;95395.44;;;13.72;70.40
63568;BME280;49715;42.386;20.434;2022-12-11T08:51:01;95399.47;;;13.75;70.04
63568;BME280;49715;42.386;20.434;2022-12-11T08:53:29;95398.50;;;13.69;70.03
63568;BME280;49715;42.386;20.434;2022-12-11T08:56:01;95403.88;;;13.62;70.21
63568;BME280;49715;42.386;20.434;2022-12-11T08:58:27;95414.81;;;13.66;69.84
63568;BME280;49715;42.386;20.434;2022-12-11T09:00:55;95406.53;;;13.62;70.11
63568;BME280;49715;42.386;20.434;2022-12-11T09:03:22;95402.84;;;13.63;70.19
63568;BME280;49715;42.386;20.434;2022-12-11T09:05:49;95403.97;;;13.74;70.48
63568;BME280;49715;42.386;20.434;2022-12-11T09:08:16;95404.78;;;13.75;70.21
63568;BME280;49715;42.386;20.434;2022-12-11T09:10:42;95414.94;;;13.78;69.68
63568;BME280;49715;42.386;20.434;2022-12-11T09:13:08;95411.09;;;13.74;69.73
63568;BME280;49715;42.386;20.434;2022-12-11T09:15:39;95415.81;;;13.72;70.02
63568;BME280;49715;42.386;20.434;2022-12-11T09:18:05;95420.88;;;13.73;69.66
63568;BME280;49715;42.386;20.434;2022-12-11T09:20:32;95420.06;;;13.73;69.52
63568;BME280;49715;42.386;20.434;2022-12-11T09:22:58;95420.97;;;13.67;69.29
63568;BME280;49715;42.386;20.434;2022-12-11T09:25:24;95422.75;;;13.66;69.54
63568;BME280;49715;42.386;20.434;2022-12-11T09:27:51;95420.34;;;13.64;69.39
63568;BME280;49715;42.386;20.434;2022-12-11T09:30:17;95416.91;;;13.64;69.34
63568;BME280;49715;42.386;20.434;2022-12-11T09:32:44;95409.19;;;13.62;69.09
63568;BME280;49715;42.386;20.434;2022-12-11T09:35:10;95416.66;;;13.65;69.09
63568;BME280;49715;42.386;20.434;2022-12-11T09:37:36;95399.59;;;13.61;69.16
63568;BME280;49715;42.386;20.434;2022-12-11T09:40:03;95402.19;;;13.68;69.41
63568;BME280;49715;42.386;20.434;2022-12-11T09:42:44;95403.38;;;13.72;69.52
63568;BME280;49715;42.386;20.434;2022-12-11T09:45:14;95407.72;;;13.85;69.78
63568;BME280;49715;42.386;20.434;2022-12-11T09:47:43;95399.72;;;13.91;69.77
63568;BME280;49715;42.386;20.434;2022-12-11T09:50:23;95399.06;;;13.96;69.33
63568;BME280;49715;42.386;20.434;2022-12-11T09:53:16;95408.53;;;14.04;69.05
63568;BME280;49715;42.386;20.434;2022-12-11T09:55:59;95404.84;;;14.05;69.03
63568;BME280;49715;42.386;20.434;2022-12-11T10:01:21;95398.59;;;13.99;68.70
63568;BME280;49715;42.386;20.434;2022-12-11T10:07:10;95390.81;;;13.86;69.11
63568;BME280;49715;42.386;20.434;2022-12-11T10:09:48;95410.00;;;13.81;68.99
63568;BME280;49715;42.386;20.434;2022-12-11T10:17:44;95403.72;;;13.76;69.13
63568;BME280;49715;42.386;20.434;2022-12-11T10:20:28;95397.13;;;13.67;69.05
63568;BME280;49715;42.386;20.434;2022-12-11T10:22:58;95406.47;;;13.69;69.01
63568;BME280;49715;42.386;20.434;2022-12-11T10:25:27;95408.31;;;13.69;69.19
63568;BME280;49715;42.386;20.434;2022-12-11T10:27:55;95424.41;;;13.67;69.48
63568;BME280;49715;42.386;20.434;2022-12-11T10:30:32;95423.41;;;13.61;69.12
63568;BME280;49715;42.386;20.434;2022-12-11T10:35:57;95430.47;;;13.49;69.25
63568;BME280;49715;42.386;20.434;2022-12-11T10:38:32;95431.38;;;13.36;69.57
63568;BME280;49715;42.386;20.434;2022-12-11T10:41:02;95436.16;;;13.28;69.67
63568;BME280;49715;42.386;20.434;2022-12-11T10:43:33;95449.56;;;13.26;69.65
63568;BME280;49715;42.386;20.434;2022-12-11T10:46:00;95454.31;;;13.18;69.93
63568;BME280;49715;42.386;20.434;2022-12-11T10:48:26;95460.88;;;13.08;69.99
63568;BME280;49715;42.386;20.434;2022-12-11T10:51:11;95456.25;;;12.97;70.14
63568;BME280;49715;42.386;20.434;2022-12-11T10:53:37;95462.00;;;12.94;70.20
63568;BME280;49715;42.386;20.434;2022-12-11T10:56:05;95462.00;;;12.87;70.30
63568;BME280;49715;42.386;20.434;2022-12-11T10:58:32;95457.41;;;12.76;70.89
63568;BME280;49715;42.386;20.434;2022-12-11T11:03:30;95465.00;;;12.66;70.56
63568;BME280;49715;42.386;20.434;2022-12-11T11:06:24;95471.94;;;12.54;70.53
63568;BME280;49715;42.386;20.434;2022-12-11T11:08:56;95479.69;;;12.49;70.77
63568;BME280;49715;42.386;20.434;2022-12-11T11:11:31;95481.56;;;12.42;70.86
63568;BME280;49715;42.386;20.434;2022-12-11T11:16:37;95497.84;;;12.32;71.18
63568;BME280;49715;42.386;20.434;2022-12-11T11:19:06;95495.44;;;12.24;70.88
63568;BME280;49715;42.386;20.434;2022-12-11T11:21:33;95501.16;;;12.14;72.00
63568;BME280;49715;42.386;20.434;2022-12-11T11:23:59;95491.81;;;12.11;71.45
63568;BME280;49715;42.386;20.434;2022-12-11T11:26:31;95501.38;;;12.06;71.32
63568;BME280;49715;42.386;20.434;2022-12-11T11:28:59;95497.31;;;12.03;71.41
63568;BME280;49715;42.386;20.434;2022-12-11T11:31:32;95487.81;;;11.96;71.52
63568;BME280;49715;42.386;20.434;2022-12-11T11:34:04;95489.03;;;11.93;71.59
63568;BME280;49715;42.386;20.434;2022-12-11T11:36:33;95479.06;;;11.89;71.39
63568;BME280;49715;42.386;20.434;2022-12-11T11:42:12;95475.63;;;11.88;71.21
63568;BME280;49715;42.386;20.434;2022-12-11T11:45:02;95485.38;;;11.81;71.25
63568;BME280;49715;42.386;20.434;2022-12-11T11:47:38;95493.69;;;11.84;71.15
63568;BME280;49715;42.386;20.434;2022-12-11T11:50:19;95498.56;;;11.88;71.19
63568;BME280;49715;42.386;20.434;2022-12-11T11:52:52;95499.19;;;11.83;71.04
63568;BME280;49715;42.386;20.434;2022-12-11T11:55:31;95502.84;;;11.82;70.54
63568;BME280;49715;42.386;20.434;2022-12-11T12:00:40;95522.13;;;11.82;70.59
63568;BME280;49715;42.386;20.434;2022-12-11T12:03:16;95515.19;;;11.75;70.40
63568;BME280;49715;42.386;20.434;2022-12-11T12:06:06;95527.38;;;11.76;70.20
63568;BME280;49715;42.386;20.434;2022-12-11T12:11:33;95520.31;;;11.83;69.94
63568;BME280;49715;42.386;20.434;2022-12-11T12:14:25;95516.84;;;11.89;70.21
63568;BME280;49715;42.386;20.434;2022-12-11T12:17:09;95518.03;;;12.00;70.12
63568;BME280;49715;42.386;20.434;2022-12-11T12:23:24;95523.31;;;12.13;68.95
63568;BME280;49715;42.386;20.434;2022-12-11T12:26:27;95523.09;;;12.15;68.83
63568;BME280;49715;42.386;20.434;2022-12-11T12:47:42;95538.59;;;12.69;67.27
63568;BME280;49715;42.386;20.434;2022-12-11T12:50:14;95529.22;;;12.67;67.14
63568;BME280;49715;42.386;20.434;2022-12-11T12:52:42;95528.97;;;12.81;67.28
63568;BME280;49715;42.386;20.434;2022-12-11T12:57:41;95543.69;;;13.47;66.63
63568;BME280;49715;42.386;20.434;2022-12-11T13:00:10;95535.69;;;13.79;66.33
63568;BME280;49715;42.386;20.434;2022-12-11T13:02:49;95534.94;;;13.97;65.07
63568;BME280;49715;42.386;20.434;2022-12-11T13:05:22;95537.91;;;14.07;65.16
63568;BME280;49715;42.386;20.434;2022-12-11T13:07:56;95536.47;;;14.04;64.54
63568;BME280;49715;42.386;20.434;2022-12-11T13:12:56;95547.41;;;13.89;63.74
63568;BME280;49715;42.386;20.434;2022-12-11T13:17:59;95555.56;;;13.63;63.89
63568;BME280;49715;42.386;20.434;2022-12-11T13:20:28;95550.97;;;13.52;63.82
63568;BME280;49715;42.386;20.434;2022-12-11T13:23:15;95557.50;;;13.49;63.82
63568;BME280;49715;42.386;20.434;2022-12-11T13:25:51;95569.59;;;13.38;63.72
63568;BME280;49715;42.386;20.434;2022-12-11T13:33:38;95573.53;;;13.54;64.09
63568;BME280;49715;42.386;20.434;2022-12-11T13:39:15;95581.78;;;14.21;63.90
63568;BME280;49715;42.386;20.434;2022-12-11T13:41:49;95578.84;;;14.54;64.20
63568;BME280;49715;42.386;20.434;2022-12-11T13:44:32;95580.59;;;14.79;63.34
63568;BME280;49715;42.386;20.434;2022-12-11T13:47:01;95577.38;;;15.07;63.48
63568;BME280;49715;42.386;20.434;2022-12-11T13:49:34;95585.31;;;15.25;62.81
63568;BME280;49715;42.386;20.434;2022-12-11T13:52:01;95583.38;;;15.32;62.94
63568;BME280;49715;42.386;20.434;2022-12-11T13:54:30;95587.13;;;15.13;62.41
63568;BME280;49715;42.386;20.434;2022-12-11T13:57:00;95599.91;;;14.86;62.23
63568;BME280;49715;42.386;20.434;2022-12-11T13:59:35;95602.09;;;14.52;62.42
63568;BME280;49715;42.386;20.434;2022-12-11T14:02:14;95613.84;;;14.13;62.38
63568;BME280;49715;42.386;20.434;2022-12-11T14:04:43;95630.78;;;13.80;63.22
63568;BME280;49715;42.386;20.434;2022-12-11T14:07:11;95634.19;;;13.56;64.10
63568;BME280;49715;42.386;20.434;2022-12-11T14:09:44;95634.59;;;13.14;64.04
63568;BME280;49715;42.386;20.434;2022-12-11T14:12:15;95637.78;;;12.72;64.56
63568;BME280;49715;42.386;20.434;2022-12-11T14:14:54;95635.84;;;12.27;65.18
63568;BME280;49715;42.386;20.434;2022-12-11T14:17:25;95648.63;;;11.97;65.53
63568;BME280;49715;42.386;20.434;2022-12-11T14:19:53;95646.75;;;11.78;66.10
63568;BME280;49715;42.386;20.434;2022-12-11T14:22:23;95648.16;;;11.54;66.13
63568;BME280;49715;42.386;20.434;2022-12-11T14:24:53;95654.97;;;11.28;66.46
63568;BME280;49715;42.386;20.434;2022-12-11T14:27:20;95661.13;;;10.94;66.37